Time;durP1;ratioP1;P1;durP2;ratioP2;P2;SDS_P1;SDS_P2;PMS_P1;PMS_P2;Temp;Humidity;BMP_temperature;BMP_pressure;BME280_temperature;BME280_humidity;BME280_pressure;Samples;Min_cycle;Max_cycle;Signal;HPM_P1;HPM_P2
2022/07/16 00:03:00;;;;;;;2.33;0.97;;;15.70;90.00;;;;;;5091097;28;20425;-63
2022/07/16 00:05:28;;;;;;;1.80;0.90;;;15.70;90.10;;;;;;5084167;28;20471;-62
2022/07/16 00:07:55;;;;;;;3.27;0.93;;;15.70;90.20;;;;;;5082915;28;20451;-62
2022/07/16 00:10:22;;;;;;;1.80;1.03;;;15.70;90.20;;;;;;5087812;28;20553;-62
2022/07/16 00:12:50;;;;;;;2.60;2.40;;;15.70;90.20;;;;;;5095128;28;20851;-61
2022/07/16 00:15:17;;;;;;;1.60;0.90;;;15.80;90.10;;;;;;5088876;28;21000;-61
2022/07/16 00:17:44;;;;;;;0.97;0.80;;;15.80;90.10;;;;;;5087297;28;20497;-62
2022/07/16 00:20:12;;;;;;;1.47;0.90;;;15.80;89.90;;;;;;5088457;28;20539;-61
2022/07/16 00:22:40;;;;;;;1.10;0.73;;;15.80;89.70;;;;;;5091636;28;20442;-61
2022/07/16 00:25:08;;;;;;;4.70;0.97;;;15.90;89.50;;;;;;5077799;28;20489;-62
2022/07/16 00:27:35;;;;;;;1.33;0.90;;;15.90;89.20;;;;;;5077807;28;20935;-62
2022/07/16 00:30:02;;;;;;;1.10;0.87;;;16.00;89.00;;;;;;5095639;28;20995;-61
2022/07/16 00:32:30;;;;;;;1.13;0.90;;;16.00;88.60;;;;;;5093108;28;20939;-62
2022/07/16 00:34:57;;;;;;;5.23;1.30;;;16.00;88.20;;;;;;5081433;28;20474;-61
2022/07/16 00:37:26;;;;;;;1.77;1.00;;;16.00;87.80;;;;;;5086758;28;20564;-62
2022/07/16 00:39:53;;;;;;;6.20;1.20;;;16.10;87.40;;;;;;5080966;28;20475;-61
2022/07/16 00:42:20;;;;;;;2.10;1.20;;;16.10;87.00;;;;;;5102171;28;20477;-62
2022/07/16 00:44:47;;;;;;;1.73;1.07;;;16.20;86.50;;;;;;5105849;28;20451;-63
2022/07/16 00:47:15;;;;;;;2.27;1.30;;;16.20;85.80;;;;;;5107026;28;20439;-62
2022/07/16 00:49:42;;;;;;;1.70;1.23;;;16.20;85.20;;;;;;5089859;28;20478;-62
2022/07/16 00:52:09;;;;;;;2.40;1.23;;;16.20;84.70;;;;;;5100314;28;20447;-63
2022/07/16 00:54:38;;;;;;;5.00;1.10;;;16.30;84.40;;;;;;5107739;28;20539;-63
2022/07/16 00:57:06;;;;;;;1.33;1.07;;;16.30;83.80;;;;;;5093679;28;20449;-62
2022/07/16 00:59:33;;;;;;;4.13;1.07;;;16.30;83.40;;;;;;5090616;28;20504;-61
2022/07/16 01:02:01;;;;;;;3.70;1.00;;;16.30;83.00;;;;;;5089061;28;20533;-62
2022/07/16 01:04:28;;;;;;;1.20;1.07;;;16.30;82.60;;;;;;5094855;28;20852;-61
2022/07/16 01:06:56;;;;;;;2.30;1.13;;;16.30;82.30;;;;;;5098097;28;20476;-61
2022/07/16 01:09:26;;;;;;;2.33;1.10;;;16.30;82.10;;;;;;5082902;28;20921;-61
2022/07/16 01:11:55;;;;;;;2.90;1.50;;;16.40;82.20;;;;;;5093210;28;20454;-63
2022/07/16 01:14:23;;;;;;;2.23;1.27;;;16.40;82.20;;;;;;5078183;28;20609;-61
2022/07/16 01:16:51;;;;;;;3.60;1.47;;;16.40;82.20;;;;;;5094907;28;20967;-62
2022/07/16 01:19:19;;;;;;;1.67;1.50;;;16.40;82.30;;;;;;5080041;28;20450;-62
2022/07/16 01:21:46;;;;;;;5.60;2.30;;;16.50;82.80;;;;;;5096489;28;20446;-62
2022/07/16 01:24:15;;;;;;;4.13;1.43;;;16.50;83.00;;;;;;5093251;28;20439;-62
2022/07/16 01:26:42;;;;;;;2.23;1.33;;;16.50;83.20;;;;;;5093514;28;20484;-62
2022/07/16 01:29:09;;;;;;;4.93;1.60;;;16.50;83.20;;;;;;5103896;28;20809;-62
2022/07/16 01:31:36;;;;;;;2.17;1.17;;;16.50;83.20;;;;;;5087994;28;20509;-62
2022/07/16 01:36:54;;;;;;;4.07;1.60;;;16.50;83.50;;;;;;5093078;28;20425;-62
2022/07/16 01:39:23;;;;;;;2.03;1.20;;;16.50;83.80;;;;;;5094453;28;20434;-62
2022/07/16 01:41:52;;;;;;;2.10;1.50;;;16.50;83.90;;;;;;5094621;28;20500;-63
2022/07/16 01:44:19;;;;;;;2.20;1.40;;;16.50;84.30;;;;;;5095135;28;20801;-63
2022/07/16 01:46:46;;;;;;;1.60;1.30;;;16.50;84.40;;;;;;5082079;28;20994;-63
2022/07/16 01:49:13;;;;;;;4.53;1.83;;;16.50;84.70;;;;;;5079347;28;20435;-61
2022/07/16 01:51:41;;;;;;;1.97;1.40;;;16.50;84.70;;;;;;5093463;28;20511;-62
2022/07/16 01:54:08;;;;;;;2.57;1.30;;;16.50;85.00;;;;;;5079438;28;20445;-62
2022/07/16 01:56:37;;;;;;;3.30;1.77;;;16.50;85.10;;;;;;5078941;28;20466;-62
2022/07/16 01:59:05;;;;;;;2.07;1.70;;;16.50;85.20;;;;;;5087836;28;20476;-63
2022/07/16 02:01:32;;;;;;;2.80;1.40;;;16.50;85.30;;;;;;5080582;28;20493;-63
2022/07/16 02:04:00;;;;;;;5.13;2.00;;;16.50;85.40;;;;;;5076118;28;20439;-62
2022/07/16 02:06:27;;;;;;;1.50;1.30;;;16.50;85.60;;;;;;5093451;28;20538;-63
2022/07/16 02:08:54;;;;;;;1.63;1.53;;;16.50;85.70;;;;;;5092859;28;20519;-63
2022/07/16 02:11:22;;;;;;;2.47;1.50;;;16.40;86.20;;;;;;5089210;28;20973;-62
2022/07/16 02:13:50;;;;;;;2.13;1.43;;;16.40;86.50;;;;;;5093797;28;20442;-62
2022/07/16 02:16:18;;;;;;;3.37;1.70;;;16.40;87.10;;;;;;5087700;28;21023;-62
2022/07/16 02:18:45;;;;;;;1.97;1.67;;;16.40;87.10;;;;;;5085015;28;20513;-62
2022/07/16 02:21:12;;;;;;;3.00;1.20;;;16.40;87.20;;;;;;5084432;28;21050;-62
2022/07/16 02:23:39;;;;;;;2.70;1.90;;;16.40;87.20;;;;;;5093508;28;20450;-63
2022/07/16 02:26:07;;;;;;;3.17;2.00;;;16.40;87.40;;;;;;5084037;28;20439;-61
2022/07/16 02:28:34;;;;;;;2.40;1.40;;;16.50;87.30;;;;;;5075855;28;20502;-63
2022/07/16 02:31:03;;;;;;;4.17;1.83;;;16.50;87.20;;;;;;5095272;28;20554;-63
2022/07/16 02:33:30;;;;;;;2.60;1.60;;;16.50;87.10;;;;;;5093252;28;20447;-63
2022/07/16 02:35:57;;;;;;;2.30;1.80;;;16.50;87.00;;;;;;5084909;28;20524;-62
2022/07/16 02:38:24;;;;;;;2.43;2.03;;;16.60;86.80;;;;;;5079579;28;20477;-62
2022/07/16 02:40:52;;;;;;;2.03;1.60;;;16.60;86.50;;;;;;5075470;28;20550;-62
2022/07/16 02:43:19;;;;;;;2.80;1.63;;;16.60;86.30;;;;;;5074679;28;20485;-62
2022/07/16 02:45:46;;;;;;;2.00;1.63;;;16.70;86.00;;;;;;5091740;28;20460;-62
2022/07/16 02:48:15;;;;;;;2.23;1.80;;;16.70;85.80;;;;;;5081619;28;20447;-61
2022/07/16 02:50:42;;;;;;;2.90;1.70;;;16.70;85.50;;;;;;5082447;28;20890;-62
2022/07/16 02:53:10;;;;;;;3.20;1.80;;;16.70;85.10;;;;;;5074321;28;20537;-62
2022/07/16 02:55:37;;;;;;;1.97;1.80;;;16.70;84.80;;;;;;5083957;28;20509;-61
2022/07/16 02:58:05;;;;;;;2.10;1.60;;;16.70;84.50;;;;;;5082718;28;20541;-62
2022/07/16 03:00:32;;;;;;;1.83;1.60;;;16.70;84.10;;;;;;5092789;28;20807;-62
2022/07/16 03:03:00;;;;;;;2.50;1.90;;;16.70;83.70;;;;;;5088205;28;20452;-62
2022/07/16 03:05:29;;;;;;;7.30;2.13;;;16.80;83.50;;;;;;5075648;28;20543;-62
2022/07/16 03:07:56;;;;;;;2.13;1.50;;;16.80;83.10;;;;;;5074093;28;20452;-62
2022/07/16 03:10:24;;;;;;;3.03;1.43;;;16.80;82.90;;;;;;5080415;28;20557;-62
2022/07/16 03:12:51;;;;;;;1.50;1.37;;;16.70;82.50;;;;;;5076684;28;20447;-61
2022/07/16 03:15:18;;;;;;;2.40;1.40;;;16.80;82.30;;;;;;5090209;28;20509;-62
2022/07/16 03:17:45;;;;;;;2.87;1.77;;;16.80;81.90;;;;;;5092593;28;20935;-63
2022/07/16 03:20:13;;;;;;;3.00;2.03;;;16.80;81.50;;;;;;5077510;28;20860;-61
2022/07/16 03:22:45;;;;;;;3.37;1.43;;;16.80;81.10;;;;;;5087782;28;20443;-62
2022/07/16 03:25:14;;;;;;;2.30;1.90;;;16.80;80.70;;;;;;5085939;28;20538;-61
2022/07/16 03:27:41;;;;;;;2.80;1.60;;;16.80;80.10;;;;;;5074044;28;20486;-63
2022/07/16 03:30:09;;;;;;;2.80;1.73;;;16.80;79.90;;;;;;5081268;28;21044;-61
2022/07/16 03:32:37;;;;;;;2.67;1.70;;;16.90;79.60;;;;;;5074292;28;20530;-62
2022/07/16 03:35:06;;;;;;;1.97;1.83;;;16.90;79.50;;;;;;5087656;28;20537;-62
2022/07/16 03:37:33;;;;;;;2.40;1.50;;;16.90;79.40;;;;;;5093368;28;20961;-62
2022/07/16 03:40:02;;;;;;;2.27;2.07;;;16.90;79.40;;;;;;5090670;28;20887;-62
2022/07/16 03:42:29;;;;;;;3.10;1.77;;;16.80;79.40;;;;;;5093363;28;20504;-62
2022/07/16 03:44:57;;;;;;;1.77;1.67;;;16.80;79.50;;;;;;5086865;28;20480;-62
2022/07/16 03:47:24;;;;;;;2.23;1.80;;;16.80;79.70;;;;;;5105112;28;20447;-62
2022/07/16 03:49:51;;;;;;;2.73;1.63;;;16.80;79.80;;;;;;5087551;28;20525;-62
2022/07/16 03:52:18;;;;;;;2.90;1.90;;;16.80;80.00;;;;;;5096022;28;20790;-62
2022/07/16 03:54:46;;;;;;;2.70;1.77;;;16.80;80.10;;;;;;5100867;28;20446;-62
2022/07/16 03:57:14;;;;;;;3.77;1.83;;;16.80;80.10;;;;;;5095379;28;20509;-61
2022/07/16 03:59:42;;;;;;;3.70;1.90;;;16.80;80.30;;;;;;5091855;28;20519;-62
2022/07/16 04:02:09;;;;;;;3.10;2.00;;;16.80;80.40;;;;;;5079399;28;20447;-62
2022/07/16 04:04:36;;;;;;;1.50;1.37;;;16.80;80.40;;;;;;5076473;28;20451;-62
2022/07/16 04:09:59;;;;;;;3.57;1.87;;;16.80;80.00;;;;;;5124995;27;20632;-62
2022/07/16 04:12:27;;;;;;;3.30;2.47;;;16.80;80.40;;;;;;5116497;28;20446;-62
2022/07/16 04:14:55;;;;;;;1.83;1.73;;;16.80;80.40;;;;;;5119840;28;21009;-63
2022/07/16 04:17:22;;;;;;;4.50;2.00;;;16.80;81.40;;;;;;5111154;28;20499;-62
2022/07/16 04:19:50;;;;;;;4.50;1.83;;;16.60;83.00;;;;;;5110573;28;20491;-62
2022/07/16 04:22:17;;;;;;;3.43;1.93;;;16.40;85.70;;;;;;5109897;28;20449;-62
2022/07/16 04:24:45;;;;;;;2.50;2.30;;;16.30;89.30;;;;;;5110352;28;20442;-62
2022/07/16 04:27:13;;;;;;;6.97;2.10;;;16.10;90.90;;;;;;5110304;28;20890;-62
2022/07/16 04:29:41;;;;;;;2.40;2.10;;;15.90;92.20;;;;;;5110123;28;20964;-63
2022/07/16 04:32:08;;;;;;;3.33;2.90;;;15.70;94.40;;;;;;5109578;28;20948;-64
2022/07/16 04:34:35;;;;;;;3.60;2.20;;;15.30;95.90;;;;;;5109981;28;20476;-64
2022/07/16 04:37:02;;;;;;;4.07;2.80;;;15.00;97.70;;;;;;5110467;28;20446;-63
2022/07/16 04:39:30;;;;;;;6.20;3.00;;;14.80;99.20;;;;;;5110262;28;20441;-63
2022/07/16 04:41:57;;;;;;;3.63;3.30;;;14.70;99.90;;;;;;5109846;28;20445;-63
2022/07/16 04:44:26;;;;;;;4.07;3.00;;;14.60;99.90;;;;;;5109887;28;20445;-63
2022/07/16 04:46:53;;;;;;;4.73;3.03;;;14.50;99.90;;;;;;5110186;28;20490;-64
2022/07/16 04:49:20;;;;;;;3.53;3.23;;;14.50;99.90;;;;;;5110303;28;20577;-63
2022/07/16 04:51:48;;;;;;;5.40;3.50;;;14.50;99.90;;;;;;5109414;28;20450;-63
2022/07/16 04:54:15;;;;;;;3.83;3.53;;;14.50;99.90;;;;;;5109987;28;20446;-64
2022/07/16 04:56:42;;;;;;;4.93;3.20;;;14.50;99.90;;;;;;5109617;28;20502;-63
2022/07/16 04:59:09;;;;;;;4.20;3.30;;;14.40;99.90;;;;;;5110205;28;20437;-63
2022/07/16 05:01:38;;;;;;;4.57;3.70;;;14.40;99.90;;;;;;5109421;28;20465;-64
2022/07/16 05:04:06;;;;;;;3.80;3.47;;;14.30;99.90;;;;;;5110444;28;20441;-62
2022/07/16 05:06:33;;;;;;;3.93;3.63;;;14.30;99.90;;;;;;5109472;28;20495;-64
2022/07/16 05:09:01;;;;;;;5.67;3.00;;;14.20;99.90;;;;;;5109457;28;20508;-63
2022/07/16 05:11:28;;;;;;;4.07;3.40;;;14.10;99.90;;;;;;5109495;28;20466;-64
2022/07/16 05:13:56;;;;;;;6.07;4.37;;;14.10;99.90;;;;;;5110015;28;20486;-63
2022/07/16 05:16:24;;;;;;;4.47;3.50;;;14.00;99.90;;;;;;5109208;28;20507;-64
2022/07/16 05:18:53;;;;;;;4.60;4.10;;;13.90;99.90;;;;;;5109425;28;20474;-63
2022/07/16 05:21:20;;;;;;;4.73;4.20;;;13.90;99.90;;;;;;5096205;28;21093;-63
2022/07/16 05:23:47;;;;;;;6.47;4.47;;;13.90;99.90;;;;;;5095686;28;20451;-63
2022/07/16 05:26:15;;;;;;;5.13;4.63;;;13.90;99.90;;;;;;5095339;28;20504;-64
2022/07/16 05:28:42;;;;;;;8.27;4.93;;;13.90;99.90;;;;;;5095872;28;20563;-64
2022/07/16 05:31:09;;;;;;;6.30;5.00;;;13.90;99.90;;;;;;5095288;28;20523;-64
2022/07/16 05:33:36;;;;;;;5.00;4.57;;;13.90;99.90;;;;;;5095490;28;21011;-63
2022/07/16 05:36:06;;;;;;;5.20;4.70;;;13.90;99.90;;;;;;5095490;28;20541;-63
2022/07/16 05:38:33;;;;;;;4.97;4.47;;;13.90;99.90;;;;;;5095364;28;20464;-63
2022/07/16 05:41:01;;;;;;;6.43;4.90;;;13.90;99.90;;;;;;5095612;28;20561;-62
2022/07/16 05:43:28;;;;;;;6.00;4.60;;;14.00;99.90;;;;;;5095074;28;20442;-62
2022/07/16 05:45:56;;;;;;;7.87;4.70;;;14.10;99.90;;;;;;5094628;28;20442;-61
2022/07/16 05:48:23;;;;;;;5.40;4.87;;;14.20;99.90;;;;;;5095550;28;20548;-62
2022/07/16 05:50:50;;;;;;;5.30;4.80;;;14.30;99.90;;;;;;5094715;28;20477;-63
2022/07/16 05:53:19;;;;;;;5.73;4.60;;;14.40;99.90;;;;;;5094974;28;20790;-62
2022/07/16 05:55:46;;;;;;;6.93;5.00;;;14.50;99.90;;;;;;5095275;28;20443;-62
2022/07/16 05:58:13;;;;;;;5.63;4.37;;;14.50;99.90;;;;;;5095025;28;20446;-63
2022/07/16 06:00:41;;;;;;;4.80;4.40;;;14.60;99.90;;;;;;5094785;28;20997;-64
2022/07/16 06:03:08;;;;;;;4.40;4.00;;;14.60;99.90;;;;;;5094852;28;20478;-64
2022/07/16 06:05:36;;;;;;;4.87;4.30;;;14.70;99.90;;;;;;5094914;28;20511;-64
2022/07/16 06:08:03;;;;;;;6.80;5.00;;;14.70;99.90;;;;;;5094135;28;21117;-63
2022/07/16 06:10:32;;;;;;;5.53;4.00;;;14.80;99.90;;;;;;5094445;28;20879;-63
2022/07/16 06:12:59;;;;;;;6.37;5.17;;;14.80;99.90;;;;;;5094776;28;20545;-63
2022/07/16 06:15:27;;;;;;;4.57;3.93;;;14.70;99.90;;;;;;5093862;28;20450;-63
2022/07/16 06:17:54;;;;;;;6.03;4.53;;;14.80;99.90;;;;;;5094852;28;20450;-63
2022/07/16 06:20:22;;;;;;;4.90;4.50;;;14.80;99.90;;;;;;5094530;28;20462;-63
2022/07/16 06:22:49;;;;;;;7.90;4.10;;;14.90;99.90;;;;;;5094321;28;20461;-62
2022/07/16 06:25:17;;;;;;;5.87;4.90;;;14.90;99.90;;;;;;5094399;28;20446;-63
2022/07/16 06:27:46;;;;;;;4.07;3.70;;;15.20;99.90;;;;;;5094335;28;20454;-62
2022/07/16 06:30:15;;;;;;;3.90;3.50;;;15.50;99.90;;;;;;5094209;28;20502;-63
2022/07/16 06:32:42;;;;;;;4.23;3.83;;;15.70;99.90;;;;;;5093718;28;20515;-62
2022/07/16 06:35:10;;;;;;;3.90;3.40;;;15.90;99.90;;;;;;5094210;28;20443;-64
2022/07/16 06:37:37;;;;;;;4.30;3.33;;;16.00;99.90;;;;;;5094741;28;20439;-63
2022/07/16 06:40:06;;;;;;;3.37;3.07;;;16.00;99.90;;;;;;5094140;28;20819;-64
2022/07/16 06:42:34;;;;;;;7.50;3.20;;;16.00;99.90;;;;;;5094207;28;20537;-63
2022/07/16 06:45:04;;;;;;;7.23;3.20;;;16.10;99.90;;;;;;5093695;28;20496;-64
2022/07/16 06:47:31;;;;;;;4.20;3.00;;;16.20;99.90;;;;;;5095977;28;20567;-61
2022/07/16 06:49:58;;;;;;;2.90;2.63;;;16.20;99.90;;;;;;5094410;28;20517;-63
2022/07/16 06:52:25;;;;;;;5.23;3.20;;;16.30;99.90;;;;;;5094805;28;20537;-63
2022/07/16 06:54:53;;;;;;;5.77;2.87;;;16.40;99.90;;;;;;5094616;28;20442;-63
2022/07/16 06:57:21;;;;;;;3.13;2.50;;;16.50;99.90;;;;;;5093808;28;20563;-62
2022/07/16 06:59:48;;;;;;;2.90;1.90;;;16.60;99.90;;;;;;5093223;28;20523;-63
2022/07/16 07:02:17;;;;;;;3.70;2.43;;;16.70;99.90;;;;;;5093779;28;20529;-64
2022/07/16 07:04:44;;;;;;;3.33;2.40;;;16.80;99.90;;;;;;5093713;28;20474;-63
2022/07/16 07:07:11;;;;;;;2.60;2.40;;;17.00;99.90;;;;;;5092802;28;20499;-62
2022/07/16 07:09:39;;;;;;;2.30;2.10;;;17.10;99.90;;;;;;5093211;28;20478;-63
2022/07/16 07:12:07;;;;;;;3.80;2.13;;;17.20;99.90;;;;;;5093687;28;20442;-63
2022/07/16 07:14:34;;;;;;;2.50;2.30;;;17.10;99.90;;;;;;5093330;28;20439;-63
2022/07/16 07:17:02;;;;;;;2.30;2.07;;;17.20;99.90;;;;;;5092141;28;20480;-61
2022/07/16 07:19:30;;;;;;;2.83;2.40;;;17.20;99.90;;;;;;5093893;28;20477;-63
2022/07/16 07:21:57;;;;;;;3.30;2.10;;;17.30;99.90;;;;;;5093373;28;20497;-63
2022/07/16 07:24:25;;;;;;;2.30;2.10;;;17.50;99.80;;;;;;5093522;28;20532;-64
2022/07/16 07:26:52;;;;;;;2.87;2.47;;;17.60;98.80;;;;;;5093745;28;20451;-63
2022/07/16 07:29:19;;;;;;;2.40;2.03;;;17.70;98.30;;;;;;5093367;28;20534;-64
2022/07/16 07:31:47;;;;;;;2.60;1.87;;;17.80;97.90;;;;;;5092731;28;21023;-63
2022/07/16 07:34:14;;;;;;;4.97;2.00;;;17.90;97.00;;;;;;5092809;28;20966;-64
2022/07/16 07:36:42;;;;;;;6.03;1.97;;;17.90;96.60;;;;;;5093565;28;20511;-63
2022/07/16 07:39:10;;;;;;;2.23;1.90;;;18.00;96.30;;;;;;5092952;28;20529;-63
2022/07/16 07:41:38;;;;;;;1.70;1.60;;;18.00;96.20;;;;;;5093363;28;20813;-64
2022/07/16 07:44:06;;;;;;;1.90;1.70;;;18.00;95.60;;;;;;5091825;28;21033;-62
2022/07/16 07:46:33;;;;;;;1.77;1.50;;;18.20;95.20;;;;;;5089081;28;20923;-63
2022/07/16 07:49:00;;;;;;;1.97;1.80;;;18.40;94.30;;;;;;5092821;28;20597;-61
2022/07/16 07:51:28;;;;;;;1.70;1.60;;;18.40;93.60;;;;;;5092202;28;20519;-63
2022/07/16 07:53:56;;;;;;;2.50;1.80;;;18.40;93.50;;;;;;5092593;28;21067;-63
2022/07/16 07:56:24;;;;;;;3.80;1.90;;;18.40;93.10;;;;;;5093357;28;20443;-64
2022/07/16 07:58:51;;;;;;;2.87;2.30;;;18.40;93.10;;;;;;5093545;28;20430;-64
2022/07/16 08:01:18;;;;;;;2.23;1.60;;;18.50;93.20;;;;;;5092927;28;20502;-63
2022/07/16 08:03:45;;;;;;;3.77;2.03;;;18.70;92.90;;;;;;5093232;28;20438;-64
2022/07/16 08:06:13;;;;;;;3.10;2.20;;;18.80;91.20;;;;;;5092940;28;20484;-64
2022/07/16 08:08:40;;;;;;;3.73;1.63;;;18.90;91.30;;;;;;5092627;28;20550;-63
2022/07/16 08:11:10;;;;;;;3.43;1.67;;;18.90;90.70;;;;;;5092009;28;20486;-64
2022/07/16 08:13:37;;;;;;;2.13;1.70;;;19.00;90.50;;;;;;5091346;28;20504;-63
2022/07/16 08:16:04;;;;;;;2.53;1.80;;;19.00;90.00;;;;;;5092414;28;20545;-62
2022/07/16 08:18:32;;;;;;;1.80;1.27;;;19.10;88.50;;;;;;5092552;28;20536;-63
2022/07/16 08:20:59;;;;;;;2.60;1.43;;;19.20;86.30;;;;;;5092572;28;21069;-63
2022/07/16 08:26:12;;;;;;;3.03;1.87;;;19.00;84.50;;;;;;5093223;28;20409;-64
2022/07/16 08:28:42;;;;;;;2.07;1.30;;;18.90;85.10;;;;;;5093123;28;20450;-62
2022/07/16 08:31:10;;;;;;;1.93;1.50;;;18.70;85.20;;;;;;5093319;28;20504;-64
2022/07/16 08:33:37;;;;;;;2.50;1.77;;;18.70;85.60;;;;;;5093104;28;20447;-64
2022/07/16 08:36:05;;;;;;;3.60;1.70;;;18.90;84.70;;;;;;5094422;28;20484;-63
2022/07/16 08:38:32;;;;;;;3.77;1.70;;;19.00;84.10;;;;;;5093738;28;20511;-63
2022/07/16 08:41:02;;;;;;;4.87;2.10;;;19.20;83.20;;;;;;5096779;28;20498;-63
2022/07/16 08:43:32;;;;;;;3.00;1.70;;;19.50;82.10;;;;;;5096994;28;20439;-63
2022/07/16 08:45:59;;;;;;;2.30;1.30;;;19.90;80.30;;;;;;5097108;28;20446;-64
2022/07/16 08:48:27;;;;;;;3.40;1.73;;;20.10;77.20;;;;;;5096151;28;20450;-63
2022/07/16 08:50:55;;;;;;;3.17;2.30;;;20.40;75.60;;;;;;5095710;28;20524;-64
2022/07/16 08:53:25;;;;;;;2.33;1.70;;;20.50;71.00;;;;;;5096027;28;20939;-63
2022/07/16 08:55:53;;;;;;;1.90;1.47;;;20.60;69.40;;;;;;5097741;28;20445;-63
2022/07/16 08:58:21;;;;;;;1.70;1.20;;;20.80;67.30;;;;;;5097700;28;20438;-63
2022/07/16 09:00:50;;;;;;;2.00;1.30;;;20.90;64.80;;;;;;5096875;28;20543;-62
2022/07/16 09:03:17;;;;;;;3.03;1.80;;;20.70;63.70;;;;;;5097216;28;20446;-63
2022/07/16 09:05:44;;;;;;;2.50;1.80;;;20.40;64.00;;;;;;5096826;28;20450;-61
2022/07/16 09:08:12;;;;;;;1.77;1.13;;;20.10;63.00;;;;;;5096692;28;20458;-62
2022/07/16 09:10:39;;;;;;;2.03;1.40;;;19.70;62.20;;;;;;5096667;28;21066;-63
2022/07/16 09:13:10;;;;;;;2.80;1.40;;;19.60;61.10;;;;;;5096624;28;20446;-62
2022/07/16 09:15:39;;;;;;;2.63;1.27;;;19.70;60.70;;;;;;5097951;28;20479;-66
2022/07/16 09:18:17;;;;;;;1.40;1.20;;;19.90;60.60;;;;;;5097045;28;20442;-64
2022/07/16 09:20:47;;;;;;;2.70;2.03;;;20.40;58.90;;;;;;5096497;28;20458;-65
2022/07/16 09:23:27;;;;;;;1.10;0.97;;;20.70;56.60;;;;;;5096356;28;20446;-63
2022/07/16 09:25:56;;;;;;;1.83;0.90;;;20.80;54.80;;;;;;5096773;28;20455;-61
2022/07/16 09:28:25;;;;;;;1.63;1.23;;;20.70;53.70;;;;;;5096196;28;20469;-62
2022/07/16 09:30:53;;;;;;;5.40;1.30;;;20.50;53.70;;;;;;5096673;28;20486;-62
2022/07/16 09:33:23;;;;;;;3.63;1.30;;;20.20;54.30;;;;;;5101668;28;20476;-64
2022/07/16 09:36:05;;;;;;;2.77;1.60;;;19.80;56.40;;;;;;5099625;28;20953;-63
2022/07/16 09:38:49;;;;;;;3.57;1.70;;;19.50;58.30;;;;;;5096834;28;20407;-62
2022/07/16 09:41:17;;;;;;;7.20;1.63;;;19.20;59.80;;;;;;5095826;28;20459;-63
2022/07/16 09:43:45;;;;;;;2.60;1.37;;;19.00;61.20;;;;;;5096457;28;20906;-63
2022/07/16 09:46:18;;;;;;;2.17;1.30;;;19.00;61.10;;;;;;5096283;28;20499;-63
2022/07/16 09:48:47;;;;;;;3.30;1.40;;;19.20;60.00;;;;;;5096184;28;20418;-63
2022/07/16 09:51:17;;;;;;;3.67;1.73;;;19.50;58.40;;;;;;5098774;28;20490;-63
2022/07/16 09:53:46;;;;;;;4.07;1.17;;;19.80;56.90;;;;;;5100860;28;20476;-62
2022/07/16 09:56:16;;;;;;;2.20;1.23;;;20.00;56.10;;;;;;5099153;28;20447;-63
2022/07/16 09:58:47;;;;;;;4.23;1.30;;;20.00;55.60;;;;;;5095652;28;20477;-63
2022/07/16 10:01:15;;;;;;;7.17;1.40;;;20.00;54.60;;;;;;5095129;28;20991;-63
2022/07/16 10:03:43;;;;;;;1.47;1.20;;;19.90;54.50;;;;;;5094936;28;20478;-62
2022/07/16 10:06:12;;;;;;;4.27;2.10;;;20.10;54.20;;;;;;5095057;28;20442;-61
2022/07/16 10:08:41;;;;;;;4.60;1.70;;;20.40;53.10;;;;;;5094952;28;20484;-63
2022/07/16 10:11:10;;;;;;;3.53;1.43;;;20.60;52.50;;;;;;5095119;28;21078;-64
2022/07/16 10:13:41;;;;;;;2.10;1.10;;;20.60;52.00;;;;;;5094957;28;20482;-63
2022/07/16 10:16:09;;;;;;;3.10;1.60;;;20.30;51.50;;;;;;5095300;28;20426;-63
2022/07/16 10:18:39;;;;;;;2.13;1.00;;;20.10;51.80;;;;;;5095032;28;20447;-63
2022/07/16 10:21:12;;;;;;;3.63;1.13;;;20.10;50.80;;;;;;5094952;28;20507;-63
2022/07/16 10:23:41;;;;;;;4.93;1.27;;;20.10;50.30;;;;;;5094784;28;20456;-61
2022/07/16 10:26:13;;;;;;;4.00;1.10;;;20.20;50.70;;;;;;5094381;28;20515;-63
2022/07/16 10:28:51;;;;;;;3.90;1.23;;;20.40;49.90;;;;;;5094919;28;20431;-62
2022/07/16 10:31:39;;;;;;;2.17;0.90;;;20.60;48.50;;;;;;5094785;28;20513;-62
2022/07/16 10:34:42;;;;;;;1.93;1.10;;;20.40;48.10;;;;;;5094920;28;20434;-62
2022/07/16 10:37:26;;;;;;;1.97;1.00;;;20.30;48.00;;;;;;5094561;28;20452;-62
2022/07/16 10:40:03;;;;;;;1.93;0.93;;;20.50;47.60;;;;;;5094495;28;20458;-63
2022/07/16 10:42:31;;;;;;;2.03;1.10;;;20.80;46.60;;;;;;5095180;28;20461;-62
2022/07/16 10:44:58;;;;;;;1.73;0.90;;;20.90;44.60;;;;;;5095065;28;20453;-61
2022/07/16 10:47:44;;;;;;;2.17;1.00;;;20.80;43.60;;;;;;5094883;28;20442;-62
2022/07/16 10:50:24;;;;;;;2.20;1.13;;;20.70;43.50;;;;;;5094540;28;20481;-63
2022/07/16 10:52:53;;;;;;;3.53;1.77;;;20.70;43.70;;;;;;5095507;28;20423;-62
2022/07/16 10:55:40;;;;;;;1.90;0.80;;;20.80;43.40;;;;;;5095027;28;20600;-62
2022/07/16 10:58:07;;;;;;;2.40;0.87;;;21.00;42.20;;;;;;5094782;28;20431;-62
2022/07/16 11:00:34;;;;;;;1.63;1.07;;;21.10;40.60;;;;;;5093860;28;21003;-62
2022/07/16 11:03:04;;;;;;;3.47;1.00;;;21.10;39.90;;;;;;5093937;28;20946;-61
2022/07/16 11:05:33;;;;;;;3.43;1.10;;;21.20;39.50;;;;;;5094061;28;20448;-62
2022/07/16 11:08:12;;;;;;;3.40;1.20;;;21.30;39.60;;;;;;5094049;28;20451;-62
2022/07/16 11:10:41;;;;;;;3.30;1.33;;;21.50;39.90;;;;;;5093435;28;20479;-62
2022/07/16 11:13:16;;;;;;;3.00;1.47;;;21.60;40.10;;;;;;5093858;28;20561;-62
2022/07/16 11:15:44;;;;;;;2.50;1.00;;;21.80;40.20;;;;;;5094051;28;20443;-62
2022/07/16 11:18:16;;;;;;;3.20;1.30;;;21.70;40.50;;;;;;5093341;28;20457;-62
2022/07/16 11:20:45;;;;;;;6.33;1.40;;;21.60;41.40;;;;;;5094102;28;20894;-62
2022/07/16 11:23:15;;;;;;;6.10;1.70;;;21.50;42.10;;;;;;5093792;28;20444;-62
2022/07/16 11:25:56;;;;;;;5.63;1.20;;;21.60;42.50;;;;;;5093486;28;20443;-62
2022/07/16 11:28:23;;;;;;;6.80;1.37;;;21.60;42.80;;;;;;5093347;28;20579;-62
2022/07/16 11:31:08;;;;;;;2.20;1.00;;;21.30;43.00;;;;;;5093381;28;20475;-62
2022/07/16 11:33:36;;;;;;;3.50;1.60;;;21.00;42.90;;;;;;5093419;28;20513;-62
2022/07/16 11:36:08;;;;;;;2.10;1.20;;;20.90;42.00;;;;;;5093476;28;20477;-62
2022/07/16 11:38:37;;;;;;;4.37;1.50;;;21.00;40.90;;;;;;5093241;28;20435;-64
2022/07/16 11:41:05;;;;;;;3.07;1.33;;;21.30;40.90;;;;;;5092614;28;20972;-63
2022/07/16 11:43:32;;;;;;;2.73;1.13;;;21.70;40.60;;;;;;5092845;28;20452;-63
2022/07/16 11:45:59;;;;;;;2.63;1.40;;;21.80;40.00;;;;;;5093217;28;20533;-62
2022/07/16 11:48:36;;;;;;;4.23;1.43;;;21.70;40.30;;;;;;5093148;28;20456;-63
2022/07/16 11:51:07;;;;;;;1.97;0.80;;;21.70;40.70;;;;;;5092931;28;20483;-62
2022/07/16 11:53:37;;;;;;;4.10;1.43;;;21.50;40.90;;;;;;5093011;28;20439;-63
2022/07/16 11:56:08;;;;;;;2.33;1.20;;;21.20;41.50;;;;;;5092912;28;20968;-63
2022/07/16 11:58:36;;;;;;;3.07;1.33;;;21.10;42.40;;;;;;5092872;28;20448;-61
2022/07/16 12:01:03;;;;;;;2.23;1.00;;;20.80;43.10;;;;;;5092982;28;20467;-62
2022/07/16 12:03:31;;;;;;;3.53;1.27;;;20.70;43.90;;;;;;5093285;28;20450;-61
2022/07/16 12:06:02;;;;;;;2.50;1.00;;;20.70;44.30;;;;;;5092990;28;20447;-62
2022/07/16 12:08:30;;;;;;;2.43;1.07;;;21.10;44.20;;;;;;5093088;28;20571;-61
2022/07/16 12:11:06;;;;;;;3.90;1.10;;;21.70;43.50;;;;;;5091699;28;20483;-62
2022/07/16 12:13:38;;;;;;;2.03;1.20;;;22.00;42.30;;;;;;5092743;28;20434;-61
2022/07/16 12:16:05;;;;;;;4.13;1.50;;;22.30;41.50;;;;;;5092975;28;20438;-61
2022/07/16 12:18:33;;;;;;;5.53;1.50;;;22.70;40.60;;;;;;5092594;28;20451;-62
2022/07/16 12:21:24;;;;;;;2.53;0.80;;;23.30;39.40;;;;;;5091800;28;20530;-62
2022/07/16 12:23:52;;;;;;;3.53;1.87;;;23.60;37.80;;;;;;5091574;28;20532;-62
2022/07/16 12:26:29;;;;;;;3.60;2.17;;;23.80;36.50;;;;;;5092229;28;20449;-62
2022/07/16 12:28:56;;;;;;;1.70;1.03;;;24.10;35.80;;;;;;5092221;28;20456;-63
2022/07/16 12:31:27;;;;;;;5.73;1.20;;;24.40;35.10;;;;;;5095385;28;20480;-62
2022/07/16 12:33:55;;;;;;;2.90;1.40;;;24.60;34.90;;;;;;5096327;28;20448;-62
2022/07/16 12:36:30;;;;;;;4.00;1.23;;;24.20;35.20;;;;;;5096195;28;20522;-63
2022/07/16 12:39:00;;;;;;;2.47;1.60;;;23.40;36.60;;;;;;5095431;28;20431;-62
2022/07/16 12:41:32;;;;;;;2.50;0.93;;;22.70;37.80;;;;;;5096192;28;20464;-63
2022/07/16 12:44:02;;;;;;;3.43;1.00;;;22.50;38.70;;;;;;5096271;28;20433;-62
2022/07/16 12:46:31;;;;;;;5.40;1.20;;;22.30;38.80;;;;;;5096728;28;20802;-61
2022/07/16 12:49:00;;;;;;;3.43;0.87;;;22.30;39.00;;;;;;5096421;28;20541;-62
2022/07/16 12:51:29;;;;;;;2.83;1.20;;;22.30;38.70;;;;;;5096238;28;20484;-63
2022/07/16 12:53:58;;;;;;;4.77;1.47;;;22.30;38.70;;;;;;5096193;28;21029;-62
2022/07/16 12:59:13;;;;;;;2.53;1.00;;;22.30;38.50;;;;;;5096312;28;20407;-62
2022/07/16 13:01:42;;;;;;;4.23;1.80;;;22.20;37.10;;;;;;5095989;28;20963;-62
2022/07/16 13:04:09;;;;;;;2.87;1.50;;;22.10;37.20;;;;;;5096321;28;20444;-63
2022/07/16 13:06:38;;;;;;;5.77;1.70;;;22.10;37.50;;;;;;5097263;28;20884;-62
2022/07/16 13:09:07;;;;;;;5.70;1.63;;;22.20;37.70;;;;;;5095815;28;20517;-62